Austin/Bergstrom AFB, Texas
Current Conditions -  °F | °C
As of 1:53 AM on Thursday 27 Nov 2014 (Local Time) from KAUS Reporting Station
Clear Clear  
Wind Chill:   Ceiling: Unl
Heat Index:   Visibility: 10mi
Dew Point:   Wind: 6mph
Humidity: 89%   Direction: 10°N
Pressure: 30.39"   Gusts: NA
Location:  30.2°N, 97.68°W
Report Text: KAUS 270753Z 01005KT 10SM CLR 03/01 A3039 RMK AO2 SLP290 T00280011
Loading
Personal Weather Stations






























Interactive Weather Map New forecast layout! Learn more

10-Day Weather Forecast

Advertisements
Track Severe Weather on mobile